Map

Track Data

SID SEASON NUMBER BASIN SUBBASIN NAME ISO_TIME NATURE LAT LON WMO_WIND WMO_PRES WMO_AGENCY TRACK_TYPE DIST2LAND LANDFALL IFLAG USA_AGENCY USA_ATCF_ID USA_LAT USA_LON USA_RECORD USA_STATUS USA_WIND USA_PRES USA_SSHS USA_R34_NE USA_R34_SE USA_R34_SW USA_R34_NW USA_R50_NE USA_R50_SE USA_R50_SW USA_R50_NW USA_R64_NE USA_R64_SE USA_R64_SW USA_R64_NW USA_POCI USA_ROCI USA_RMW USA_EYE TOKYO_LAT TOKYO_LON TOKYO_GRADE TOKYO_WIND TOKYO_PRES TOKYO_R50_DIR TOKYO_R50_LONG TOKYO_R50_SHORT TOKYO_R30_DIR TOKYO_R30_LONG TOKYO_R30_SHORT TOKYO_LAND CMA_LAT CMA_LON CMA_CAT CMA_WIND CMA_PRES HKO_LAT HKO_LON HKO_CAT HKO_WIND HKO_PRES NEWDELHI_LAT NEWDELHI_LON NEWDELHI_GRADE NEWDELHI_WIND NEWDELHI_PRES NEWDELHI_CI NEWDELHI_DP NEWDELHI_POCI REUNION_LAT REUNION_LON REUNION_TYPE REUNION_WIND REUNION_PRES REUNION_TNUM REUNION_CI REUNION_RMW REUNION_R34_NE REUNION_R34_SE REUNION_R34_SW REUNION_R34_NW REUNION_R50_NE REUNION_R50_SE REUNION_R50_SW REUNION_R50_NW REUNION_R64_NE REUNION_R64_SE REUNION_R64_SW REUNION_R64_NW BOM_LAT BOM_LON BOM_TYPE BOM_WIND BOM_PRES BOM_TNUM BOM_CI BOM_RMW BOM_R34_NE BOM_R34_SE BOM_R34_SW BOM_R34_NW BOM_R50_NE BOM_R50_SE BOM_R50_SW BOM_R50_NW BOM_R64_NE BOM_R64_SE BOM_R64_SW BOM_R64_NW BOM_ROCI BOM_POCI BOM_EYE BOM_POS_METHOD BOM_PRES_METHOD NADI_LAT NADI_LON NADI_CAT NADI_WIND NADI_PRES WELLINGTON_LAT WELLINGTON_LON WELLINGTON_WIND WELLINGTON_PRES DS824_LAT DS824_LON DS824_STAGE DS824_WIND DS824_PRES TD9636_LAT TD9636_LON TD9636_STAGE TD9636_WIND TD9636_PRES TD9635_LAT TD9635_LON TD9635_WIND TD9635_PRES TD9635_ROCI NEUMANN_LAT NEUMANN_LON NEUMANN_CLASS NEUMANN_WIND NEUMANN_PRES MLC_LAT MLC_LON MLC_CLASS MLC_WIND MLC_PRES USA_GUST BOM_GUST BOM_GUST_PER REUNION_GUST REUNION_GUST_PER USA_SEAHGT USA_SEARAD_NE USA_SEARAD_SE USA_SEARAD_SW USA_SEARAD_NW STORM_SPEED STORM_DIR
1894202N24131 1894 29 WP MM NOT_NAMED 1894-07-20 16:00:00 NR 24.3000 130.500 main 748 748 __________O___ -1 24.3000 130.500 7 1 262
1894202N24131 1894 29 WP MM NOT_NAMED 1894-07-20 18:00:00 NR 24.2943 130.447 main 748 748 __________P___ -1 24.2943 130.447 7 2 268
1894202N24131 1894 29 WP MM NOT_NAMED 1894-07-20 21:00:00 NR 24.2942 130.338 main 749 749 __________P___ -1 24.2942 130.338 7 3 275
1894202N24131 1894 29 WP MM NOT_NAMED 1894-07-21 00:00:00 NR 24.3158 130.151 main 749 741 __________P___ -1 24.3158 130.151 7 5 280
1894202N24131 1894 29 WP MM NOT_NAMED 1894-07-21 03:00:00 NR 24.3716 129.840 main 742 742 __________P___ -1 24.3716 129.840 7 6 282
1894202N24131 1894 29 WP MM NOT_NAMED 1894-07-21 04:00:00 NR 24.4000 129.700 main 743 735 __________O___ -1 24.4000 129.700 7 9 283
1894202N24131 1894 29 WP MM NOT_NAMED 1894-07-21 06:00:00 NR 24.4725 129.362 main 736 677 __________P___ -1 24.4725 129.362 7 11 284
1894202N24131 1894 29 WP MM NOT_NAMED 1894-07-21 09:00:00 NR 24.6122 128.741 main 677 605 __________P___ -1 24.6122 128.741 7 12 284
1894202N24131 1894 29 WP MM NOT_NAMED 1894-07-21 12:00:00 NR 24.7746 128.041 main 605 534 __________P___ -1 24.7746 128.041 7 13 285
1894202N24131 1894 29 WP MM NOT_NAMED 1894-07-21 15:00:00 NR 24.9443 127.329 main 534 513 __________P___ -1 24.9443 127.329 7 13 285
1894202N24131 1894 29 WP MM NOT_NAMED 1894-07-21 16:00:00 NR 25.0000 127.100 main 513 473 __________O___ -1 25.0000 127.100 7 11 284
1894202N24131 1894 29 WP MM NOT_NAMED 1894-07-21 18:00:00 NR 25.0768 126.740 main 473 423 __________P___ -1 25.0768 126.740 7 10 284
1894202N24131 1894 29 WP MM NOT_NAMED 1894-07-21 21:00:00 NR 25.1926 126.219 main 423 373 __________P___ -1 25.1926 126.219 7 10 285
1894202N24131 1894 29 WP MM NOT_NAMED 1894-07-22 00:00:00 NR 25.3323 125.672 main 373 306 __________P___ -1 25.3323 125.672 7 11 287
1894202N24131 1894 29 WP MM NOT_NAMED 1894-07-22 03:00:00 NR 25.5216 125.040 main 306 289 __________P___ -1 25.5216 125.040 7 12 289
1894202N24131 1894 29 WP MM NOT_NAMED 1894-07-22 04:00:00 NR 25.6000 124.800 main 289 238 __________O___ -1 25.6000 124.800 3 15 290
1894202N24131 1894 29 WP MM NOT_NAMED 1894-07-22 06:00:00 NR 25.7858 124.245 main 238 179 __________P___ -1 25.7858 124.245 3 17 291
1894202N24131 1894 29 WP MM NOT_NAMED 1894-07-22 09:00:00 NR 26.1144 123.310 main 179 156 __________P___ -1 26.1144 123.310 3 19 292
1894202N24131 1894 29 WP MM NOT_NAMED 1894-07-22 12:00:00 NR 26.4829 122.295 main 161 76 __________P___ -1 26.4829 122.295 3 20 292
1894202N24131 1894 29 WP MM NOT_NAMED 1894-07-22 15:00:00 NR 26.8702 121.248 main 76 54 __________P___ -1 26.8702 121.248 3 20 293
1894202N24131 1894 29 WP MM NOT_NAMED 1894-07-22 16:00:00 NR 27.0000 120.900 main 45 0 __________O___ -1 27.0000 120.900 4 20 293
1894202N24131 1894 29 WP MM NOT_NAMED 1894-07-22 18:00:00 NR 27.2574 120.214 main 0 0 __________P___ -1 27.2574 120.214 4 20 293
1894202N24131 1894 29 WP MM NOT_NAMED 1894-07-22 21:00:00 NR 27.6379 119.206 main 0 0 __________P___ -1 27.6379 119.206 4 19 293
1894202N24131 1894 29 WP MM NOT_NAMED 1894-07-23 00:00:00 NR 28.0118 118.214 main 0 0 __________P___ -1 28.0118 118.214 4 19 293
1894202N24131 1894 29 WP MM NOT_NAMED 1894-07-23 03:00:00 NR 28.3791 117.229 main 0 0 __________P___ -1 28.3791 117.229 4 19 293
1894202N24131 1894 29 WP MM NOT_NAMED 1894-07-23 04:00:00 NR 28.5000 116.900 main 0 __________O___ -1 28.5000 116.900 4 19 293

Digital Typhoon Data and Search

About IBTrACS Database

This database is a web-friendly format of International Best Track Archive for Climate Stewardship (IBTrACS), a global best track data archive curated by NOAA dating back to 1842.

Updated: 2021-10-21